sensor_id;sensor_type;location;lat;lon;timestamp;temperature;humidity
43414;DHT22;29013;49.676;8.606;2023-02-03T00:00:16;8.9;99.9
43414;DHT22;29013;49.676;8.606;2023-02-03T00:05:36;9.0;99.9
43414;DHT22;29013;49.676;8.606;2023-02-03T00:11:01;9.1;99.9
43414;DHT22;29013;49.676;8.606;2023-02-03T00:16:27;9.1;99.9
43414;DHT22;29013;49.676;8.606;2023-02-03T00:21:52;9.1;99.9
43414;DHT22;29013;49.676;8.606;2023-02-03T00:27:17;9.2;99.9
43414;DHT22;29013;49.676;8.606;2023-02-03T00:32:39;9.0;99.9
43414;DHT22;29013;49.676;8.606;2023-02-03T00:38:20;8.9;99.9
43414;DHT22;29013;49.676;8.606;2023-02-03T00:43:43;9.0;99.9
43414;DHT22;29013;49.676;8.606;2023-02-03T00:49:08;9.0;99.9
43414;DHT22;29013;49.676;8.606;2023-02-03T00:54:34;9.1;99.9
43414;DHT22;29013;49.676;8.606;2023-02-03T00:59:57;9.2;99.9
43414;DHT22;29013;49.676;8.606;2023-02-03T01:05:23;9.2;99.9
43414;DHT22;29013;49.676;8.606;2023-02-03T01:10:47;9.3;99.9
43414;DHT22;29013;49.676;8.606;2023-02-03T01:16:13;9.2;99.9
43414;DHT22;29013;49.676;8.606;2023-02-03T01:21:34;9.1;99.9
43414;DHT22;29013;49.676;8.606;2023-02-03T01:26:56;8.9;99.9
43414;DHT22;29013;49.676;8.606;2023-02-03T01:32:20;8.9;99.9
43414;DHT22;29013;49.676;8.606;2023-02-03T01:37:45;8.9;99.9
43414;DHT22;29013;49.676;8.606;2023-02-03T01:48:46;9.0;99.9
43414;DHT22;29013;49.676;8.606;2023-02-03T01:54:12;9.0;99.9
43414;DHT22;29013;49.676;8.606;2023-02-03T02:00:03;9.0;99.9
43414;DHT22;29013;49.676;8.606;2023-02-03T02:05:27;9.3;99.9
43414;DHT22;29013;49.676;8.606;2023-02-03T02:10:49;9.3;99.9
43414;DHT22;29013;49.676;8.606;2023-02-03T02:23:24;9.6;99.9
43414;DHT22;29013;49.676;8.606;2023-02-03T02:29:00;9.5;99.9
43414;DHT22;29013;49.676;8.606;2023-02-03T02:34:21;9.4;99.9
43414;DHT22;29013;49.676;8.606;2023-02-03T02:39:48;9.4;99.9
43414;DHT22;29013;49.676;8.606;2023-02-03T02:45:13;9.3;99.9
43414;DHT22;29013;49.676;8.606;2023-02-03T02:50:32;9.4;99.9
43414;DHT22;29013;49.676;8.606;2023-02-03T02:55:58;9.4;99.9
43414;DHT22;29013;49.676;8.606;2023-02-03T03:01:16;9.5;99.9
43414;DHT22;29013;49.676;8.606;2023-02-03T03:06:40;9.5;99.9
43414;DHT22;29013;49.676;8.606;2023-02-03T03:12:05;9.5;99.9
43414;DHT22;29013;49.676;8.606;2023-02-03T03:17:29;9.5;99.9
43414;DHT22;29013;49.676;8.606;2023-02-03T03:23:44;9.3;99.9
43414;DHT22;29013;49.676;8.606;2023-02-03T03:29:11;9.5;99.9
43414;DHT22;29013;49.676;8.606;2023-02-03T03:34:30;9.2;99.9
43414;DHT22;29013;49.676;8.606;2023-02-03T03:39:54;9.2;99.9
43414;DHT22;29013;49.676;8.606;2023-02-03T03:45:16;9.1;99.9
43414;DHT22;29013;49.676;8.606;2023-02-03T03:50:40;9.2;99.9
43414;DHT22;29013;49.676;8.606;2023-02-03T03:56:08;9.2;99.9
43414;DHT22;29013;49.676;8.606;2023-02-03T04:01:45;9.2;99.9
43414;DHT22;29013;49.676;8.606;2023-02-03T04:07:05;9.4;99.9
43414;DHT22;29013;49.676;8.606;2023-02-03T04:12:26;9.3;99.9
43414;DHT22;29013;49.676;8.606;2023-02-03T04:17:48;9.3;99.9
43414;DHT22;29013;49.676;8.606;2023-02-03T04:23:07;9.1;99.9
43414;DHT22;29013;49.676;8.606;2023-02-03T04:28:33;9.0;99.9
43414;DHT22;29013;49.676;8.606;2023-02-03T04:33:57;8.9;99.9
43414;DHT22;29013;49.676;8.606;2023-02-03T04:39:21;8.7;99.9
43414;DHT22;29013;49.676;8.606;2023-02-03T04:44:46;8.8;99.9
43414;DHT22;29013;49.676;8.606;2023-02-03T04:50:12;8.9;99.9
43414;DHT22;29013;49.676;8.606;2023-02-03T04:55:38;9.0;99.9
43414;DHT22;29013;49.676;8.606;2023-02-03T05:01:06;9.1;99.9
43414;DHT22;29013;49.676;8.606;2023-02-03T05:06:28;9.1;99.9
43414;DHT22;29013;49.676;8.606;2023-02-03T05:11:50;9.2;99.9
43414;DHT22;29013;49.676;8.606;2023-02-03T05:17:32;9.2;99.9
43414;DHT22;29013;49.676;8.606;2023-02-03T05:22:56;9.3;99.9
43414;DHT22;29013;49.676;8.606;2023-02-03T05:28:21;9.3;99.9
43414;DHT22;29013;49.676;8.606;2023-02-03T05:34:23;9.4;99.9
43414;DHT22;29013;49.676;8.606;2023-02-03T05:39:47;9.4;99.9
43414;DHT22;29013;49.676;8.606;2023-02-03T05:45:09;9.2;99.9
43414;DHT22;29013;49.676;8.606;2023-02-03T05:50:29;9.2;99.9
43414;DHT22;29013;49.676;8.606;2023-02-03T05:55:53;9.1;99.9
43414;DHT22;29013;49.676;8.606;2023-02-03T06:01:16;9.2;99.9
43414;DHT22;29013;49.676;8.606;2023-02-03T06:06:41;9.2;99.9
43414;DHT22;29013;49.676;8.606;2023-02-03T06:12:06;9.2;99.9
43414;DHT22;29013;49.676;8.606;2023-02-03T06:17:30;9.2;99.9
43414;DHT22;29013;49.676;8.606;2023-02-03T06:23:35;9.1;99.9
43414;DHT22;29013;49.676;8.606;2023-02-03T06:28:56;9.4;99.9
43414;DHT22;29013;49.676;8.606;2023-02-03T06:34:17;9.2;99.9
43414;DHT22;29013;49.676;8.606;2023-02-03T06:39:57;9.1;99.9
43414;DHT22;29013;49.676;8.606;2023-02-03T06:45:40;9.2;99.9
43414;DHT22;29013;49.676;8.606;2023-02-03T06:51:00;9.4;99.9
43414;DHT22;29013;49.676;8.606;2023-02-03T06:56:23;9.3;99.9
43414;DHT22;29013;49.676;8.606;2023-02-03T07:01:48;9.3;99.9
43414;DHT22;29013;49.676;8.606;2023-02-03T07:07:13;9.3;99.9
43414;DHT22;29013;49.676;8.606;2023-02-03T07:12:36;9.4;99.9
43414;DHT22;29013;49.676;8.606;2023-02-03T07:18:02;9.4;99.9
43414;DHT22;29013;49.676;8.606;2023-02-03T07:23:26;9.4;99.9
43414;DHT22;29013;49.676;8.606;2023-02-03T07:28:48;9.4;99.9
43414;DHT22;29013;49.676;8.606;2023-02-03T07:34:14;9.4;99.9
43414;DHT22;29013;49.676;8.606;2023-02-03T07:39:37;9.3;99.9
43414;DHT22;29013;49.676;8.606;2023-02-03T07:44:59;9.3;99.9
43414;DHT22;29013;49.676;8.606;2023-02-03T07:50:24;9.2;99.9
43414;DHT22;29013;49.676;8.606;2023-02-03T07:55:49;9.3;99.9
43414;DHT22;29013;49.676;8.606;2023-02-03T08:01:15;9.4;99.9
43414;DHT22;29013;49.676;8.606;2023-02-03T08:06:34;9.4;99.9
43414;DHT22;29013;49.676;8.606;2023-02-03T08:12:00;9.5;99.9
43414;DHT22;29013;49.676;8.606;2023-02-03T08:17:23;9.5;99.9
43414;DHT22;29013;49.676;8.606;2023-02-03T08:22:48;9.6;99.9
43414;DHT22;29013;49.676;8.606;2023-02-03T08:28:10;9.6;99.9
43414;DHT22;29013;49.676;8.606;2023-02-03T08:33:31;9.7;99.9
43414;DHT22;29013;49.676;8.606;2023-02-03T08:38:55;9.7;99.9
43414;DHT22;29013;49.676;8.606;2023-02-03T08:44:20;9.7;99.9
43414;DHT22;29013;49.676;8.606;2023-02-03T08:49:45;9.6;99.9
43414;DHT22;29013;49.676;8.606;2023-02-03T08:55:08;9.6;99.9
43414;DHT22;29013;49.676;8.606;2023-02-03T09:00:30;9.7;99.9
43414;DHT22;29013;49.676;8.606;2023-02-03T09:05:51;9.9;99.9
43414;DHT22;29013;49.676;8.606;2023-02-03T09:11:15;10.0;99.9
43414;DHT22;29013;49.676;8.606;2023-02-03T09:16:37;10.0;99.9
43414;DHT22;29013;49.676;8.606;2023-02-03T09:22:00;10.1;99.9
43414;DHT22;29013;49.676;8.606;2023-02-03T09:27:23;10.1;99.9
43414;DHT22;29013;49.676;8.606;2023-02-03T09:32:48;10.1;99.9
43414;DHT22;29013;49.676;8.606;2023-02-03T09:38:10;10.0;99.9
43414;DHT22;29013;49.676;8.606;2023-02-03T09:43:36;9.9;99.9
43414;DHT22;29013;49.676;8.606;2023-02-03T09:48:55;10.0;99.9
43414;DHT22;29013;49.676;8.606;2023-02-03T09:54:20;10.0;99.9
43414;DHT22;29013;49.676;8.606;2023-02-03T09:59:45;10.0;99.9
43414;DHT22;29013;49.676;8.606;2023-02-03T10:05:10;10.1;99.9
43414;DHT22;29013;49.676;8.606;2023-02-03T10:10:47;10.1;99.9
43414;DHT22;29013;49.676;8.606;2023-02-03T10:16:24;10.4;99.9
43414;DHT22;29013;49.676;8.606;2023-02-03T10:21:48;10.5;99.9
43414;DHT22;29013;49.676;8.606;2023-02-03T10:27:14;10.5;99.9
43414;DHT22;29013;49.676;8.606;2023-02-03T10:32:36;10.5;99.9
43414;DHT22;29013;49.676;8.606;2023-02-03T10:37:58;10.5;99.9
43414;DHT22;29013;49.676;8.606;2023-02-03T10:43:19;10.4;99.9
43414;DHT22;29013;49.676;8.606;2023-02-03T10:48:42;10.4;99.9
43414;DHT22;29013;49.676;8.606;2023-02-03T10:54:32;10.3;99.9
43414;DHT22;29013;49.676;8.606;2023-02-03T11:12:20;13.2;98.1
43414;DHT22;29013;49.676;8.606;2023-02-03T11:17:43;12.1;99.8
43414;DHT22;29013;49.676;8.606;2023-02-03T11:23:07;11.3;99.9
43414;DHT22;29013;49.676;8.606;2023-02-03T11:28:32;11.0;99.9
43414;DHT22;29013;49.676;8.606;2023-02-03T11:34:23;10.7;99.9
43414;DHT22;29013;49.676;8.606;2023-02-03T11:39:45;10.7;99.9
43414;DHT22;29013;49.676;8.606;2023-02-03T11:45:23;10.5;99.9
43414;DHT22;29013;49.676;8.606;2023-02-03T11:50:43;10.5;99.9
43414;DHT22;29013;49.676;8.606;2023-02-03T11:56:14;10.6;99.9
43414;DHT22;29013;49.676;8.606;2023-02-03T12:01:42;10.7;99.9
43414;DHT22;29013;49.676;8.606;2023-02-03T12:07:20;10.7;99.9
43414;DHT22;29013;49.676;8.606;2023-02-03T12:12:52;10.8;99.9
43414;DHT22;29013;49.676;8.606;2023-02-03T12:18:30;10.8;99.9
43414;DHT22;29013;49.676;8.606;2023-02-03T12:23:52;10.8;99.9
43414;DHT22;29013;49.676;8.606;2023-02-03T12:29:13;10.8;99.9
43414;DHT22;29013;49.676;8.606;2023-02-03T12:34:58;10.6;99.9
43414;DHT22;29013;49.676;8.606;2023-02-03T12:40:20;10.8;99.9
43414;DHT22;29013;49.676;8.606;2023-02-03T12:45:48;10.7;99.9
43414;DHT22;29013;49.676;8.606;2023-02-03T12:51:09;10.7;99.9
43414;DHT22;29013;49.676;8.606;2023-02-03T12:56:36;10.7;99.9
43414;DHT22;29013;49.676;8.606;2023-02-03T13:02:00;10.8;99.9
43414;DHT22;29013;49.676;8.606;2023-02-03T13:07:26;10.8;99.9
43414;DHT22;29013;49.676;8.606;2023-02-03T13:12:50;10.8;99.9
43414;DHT22;29013;49.676;8.606;2023-02-03T13:18:18;10.8;99.9
43414;DHT22;29013;49.676;8.606;2023-02-03T13:23:36;10.8;99.9
43414;DHT22;29013;49.676;8.606;2023-02-03T13:29:16;10.7;99.9
43414;DHT22;29013;49.676;8.606;2023-02-03T13:34:43;10.9;99.9
43414;DHT22;29013;49.676;8.606;2023-02-03T13:40:10;10.9;99.9
43414;DHT22;29013;49.676;8.606;2023-02-03T13:45:35;10.8;99.9
43414;DHT22;29013;49.676;8.606;2023-02-03T13:51:06;10.7;99.9
43414;DHT22;29013;49.676;8.606;2023-02-03T13:56:27;10.6;99.9
43414;DHT22;29013;49.676;8.606;2023-02-03T14:01:48;10.6;99.9
43414;DHT22;29013;49.676;8.606;2023-02-03T14:07:39;10.5;99.9
43414;DHT22;29013;49.676;8.606;2023-02-03T14:13:33;10.7;99.9
43414;DHT22;29013;49.676;8.606;2023-02-03T14:24:46;10.9;99.9
43414;DHT22;29013;49.676;8.606;2023-02-03T14:30:10;10.8;99.9
43414;DHT22;29013;49.676;8.606;2023-02-03T14:35:36;10.7;99.9
43414;DHT22;29013;49.676;8.606;2023-02-03T14:41:00;10.8;99.9
43414;DHT22;29013;49.676;8.606;2023-02-03T14:52:06;10.8;99.9
43414;DHT22;29013;49.676;8.606;2023-02-03T14:57:28;10.8;99.9
43414;DHT22;29013;49.676;8.606;2023-02-03T15:08:42;10.8;99.9
43414;DHT22;29013;49.676;8.606;2023-02-03T15:14:19;10.8;99.9
43414;DHT22;29013;49.676;8.606;2023-02-03T15:19:40;10.8;99.9
43414;DHT22;29013;49.676;8.606;2023-02-03T15:25:03;10.8;99.9
43414;DHT22;29013;49.676;8.606;2023-02-03T15:30:29;10.6;99.9
43414;DHT22;29013;49.676;8.606;2023-02-03T15:36:18;10.5;99.9
43414;DHT22;29013;49.676;8.606;2023-02-03T15:41:41;10.6;99.9
43414;DHT22;29013;49.676;8.606;2023-02-03T15:47:05;10.4;99.9
43414;DHT22;29013;49.676;8.606;2023-02-03T15:52:30;10.4;99.9
43414;DHT22;29013;49.676;8.606;2023-02-03T15:57:54;10.4;99.9
43414;DHT22;29013;49.676;8.606;2023-02-03T16:03:18;10.4;99.9
43414;DHT22;29013;49.676;8.606;2023-02-03T16:08:43;10.2;99.9
43414;DHT22;29013;49.676;8.606;2023-02-03T16:14:09;10.2;99.9
43414;DHT22;29013;49.676;8.606;2023-02-03T16:19:32;10.1;99.9
43414;DHT22;29013;49.676;8.606;2023-02-03T16:24:53;10.0;99.9
43414;DHT22;29013;49.676;8.606;2023-02-03T16:30:23;10.0;99.9
43414;DHT22;29013;49.676;8.606;2023-02-03T16:35:43;10.1;99.9
43414;DHT22;29013;49.676;8.606;2023-02-03T16:41:25;10.1;99.9
43414;DHT22;29013;49.676;8.606;2023-02-03T16:46:44;10.2;99.9
43414;DHT22;29013;49.676;8.606;2023-02-03T16:52:08;10.2;99.9
43414;DHT22;29013;49.676;8.606;2023-02-03T16:57:33;10.0;99.9
43414;DHT22;29013;49.676;8.606;2023-02-03T17:02:56;10.0;99.9
43414;DHT22;29013;49.676;8.606;2023-02-03T17:08:23;10.0;99.9
43414;DHT22;29013;49.676;8.606;2023-02-03T17:13:47;10.0;99.9
43414;DHT22;29013;49.676;8.606;2023-02-03T17:19:13;10.1;99.9
43414;DHT22;29013;49.676;8.606;2023-02-03T17:24:38;10.1;99.9
43414;DHT22;29013;49.676;8.606;2023-02-03T17:30:05;10.1;99.9
43414;DHT22;29013;49.676;8.606;2023-02-03T17:35:27;10.2;99.9
43414;DHT22;29013;49.676;8.606;2023-02-03T17:47:15;10.2;99.9
43414;DHT22;29013;49.676;8.606;2023-02-03T17:52:55;10.2;99.9
43414;DHT22;29013;49.676;8.606;2023-02-03T17:58:13;10.2;99.9
43414;DHT22;29013;49.676;8.606;2023-02-03T18:03:34;10.2;99.9
43414;DHT22;29013;49.676;8.606;2023-02-03T18:08:57;10.1;99.9
43414;DHT22;29013;49.676;8.606;2023-02-03T18:14:22;10.1;99.9
43414;DHT22;29013;49.676;8.606;2023-02-03T18:19:46;10.1;99.9
43414;DHT22;29013;49.676;8.606;2023-02-03T18:25:12;10.1;99.9
43414;DHT22;29013;49.676;8.606;2023-02-03T18:30:36;10.1;99.9
43414;DHT22;29013;49.676;8.606;2023-02-03T18:36:04;10.2;99.9
43414;DHT22;29013;49.676;8.606;2023-02-03T18:41:48;10.0;99.9
43414;DHT22;29013;49.676;8.606;2023-02-03T18:47:08;10.1;99.9
43414;DHT22;29013;49.676;8.606;2023-02-03T18:52:29;9.9;99.9
43414;DHT22;29013;49.676;8.606;2023-02-03T18:57:53;9.8;99.9
43414;DHT22;29013;49.676;8.606;2023-02-03T19:03:22;9.8;99.9
43414;DHT22;29013;49.676;8.606;2023-02-03T19:08:46;9.9;99.9
43414;DHT22;29013;49.676;8.606;2023-02-03T19:14:14;9.9;99.9
43414;DHT22;29013;49.676;8.606;2023-02-03T19:19:38;10.0;99.9
43414;DHT22;29013;49.676;8.606;2023-02-03T19:25:04;10.0;99.9
43414;DHT22;29013;49.676;8.606;2023-02-03T19:30:30;10.0;99.9
43414;DHT22;29013;49.676;8.606;2023-02-03T19:35:53;10.1;99.9
43414;DHT22;29013;49.676;8.606;2023-02-03T19:41:19;10.0;99.9
43414;DHT22;29013;49.676;8.606;2023-02-03T19:47:06;10.0;99.9
43414;DHT22;29013;49.676;8.606;2023-02-03T19:52:31;10.1;99.9
43414;DHT22;29013;49.676;8.606;2023-02-03T19:57:56;9.9;99.9
43414;DHT22;29013;49.676;8.606;2023-02-03T20:03:17;9.9;99.9
43414;DHT22;29013;49.676;8.606;2023-02-03T20:08:40;9.8;99.9
43414;DHT22;29013;49.676;8.606;2023-02-03T20:14:06;9.7;99.9
43414;DHT22;29013;49.676;8.606;2023-02-03T20:19:31;9.7;99.9
43414;DHT22;29013;49.676;8.606;2023-02-03T20:24:54;9.7;99.9
43414;DHT22;29013;49.676;8.606;2023-02-03T20:30:16;9.7;99.9
43414;DHT22;29013;49.676;8.606;2023-02-03T20:35:38;9.7;99.9
43414;DHT22;29013;49.676;8.606;2023-02-03T20:41:02;9.7;99.9
43414;DHT22;29013;49.676;8.606;2023-02-03T20:46:26;9.8;99.9
43414;DHT22;29013;49.676;8.606;2023-02-03T20:51:47;9.8;99.9
43414;DHT22;29013;49.676;8.606;2023-02-03T20:57:11;9.8;99.9
43414;DHT22;29013;49.676;8.606;2023-02-03T21:02:31;9.9;99.9
43414;DHT22;29013;49.676;8.606;2023-02-03T21:07:53;9.8;99.9
43414;DHT22;29013;49.676;8.606;2023-02-03T21:13:23;9.8;99.9
43414;DHT22;29013;49.676;8.606;2023-02-03T21:18:47;9.8;99.9
43414;DHT22;29013;49.676;8.606;2023-02-03T21:24:18;9.8;99.9
43414;DHT22;29013;49.676;8.606;2023-02-03T21:29:38;9.8;99.9
43414;DHT22;29013;49.676;8.606;2023-02-03T21:35:00;9.8;99.9
43414;DHT22;29013;49.676;8.606;2023-02-03T21:40:39;9.7;99.9
43414;DHT22;29013;49.676;8.606;2023-02-03T21:46:04;9.8;99.9
43414;DHT22;29013;49.676;8.606;2023-02-03T21:51:48;9.7;99.9
43414;DHT22;29013;49.676;8.606;2023-02-03T21:57:27;9.8;99.9
43414;DHT22;29013;49.676;8.606;2023-02-03T22:03:20;9.7;99.9
43414;DHT22;29013;49.676;8.606;2023-02-03T22:08:42;9.9;99.9
43414;DHT22;29013;49.676;8.606;2023-02-03T22:14:02;9.8;99.9
43414;DHT22;29013;49.676;8.606;2023-02-03T22:19:27;9.7;99.9
43414;DHT22;29013;49.676;8.606;2023-02-03T22:24:49;9.7;99.9
43414;DHT22;29013;49.676;8.606;2023-02-03T22:30:17;9.8;99.9
43414;DHT22;29013;49.676;8.606;2023-02-03T22:35:42;9.7;99.9
43414;DHT22;29013;49.676;8.606;2023-02-03T22:41:08;9.8;99.9
43414;DHT22;29013;49.676;8.606;2023-02-03T22:46:31;9.8;99.9
43414;DHT22;29013;49.676;8.606;2023-02-03T22:52:14;9.8;99.9
43414;DHT22;29013;49.676;8.606;2023-02-03T22:57:33;9.9;99.9
43414;DHT22;29013;49.676;8.606;2023-02-03T23:02:57;9.9;99.9
43414;DHT22;29013;49.676;8.606;2023-02-03T23:08:42;9.8;99.9
43414;DHT22;29013;49.676;8.606;2023-02-03T23:14:05;9.8;99.9
43414;DHT22;29013;49.676;8.606;2023-02-03T23:19:44;9.7;99.9
43414;DHT22;29013;49.676;8.606;2023-02-03T23:25:10;9.9;99.9
43414;DHT22;29013;49.676;8.606;2023-02-03T23:30:34;9.9;99.9
43414;DHT22;29013;49.676;8.606;2023-02-03T23:36:00;9.9;99.9
43414;DHT22;29013;49.676;8.606;2023-02-03T23:41:24;9.9;99.9
43414;DHT22;29013;49.676;8.606;2023-02-03T23:46:47;9.9;99.9
43414;DHT22;29013;49.676;8.606;2023-02-03T23:52:06;9.9;99.9
43414;DHT22;29013;49.676;8.606;2023-02-03T23:57:31;9.8;99.9
